Time;durP1;ratioP1;P1;durP2;ratioP2;P2;SDS_P1;SDS_P2;PMS_P1;PMS_P2;Temp;Humidity;BMP_temperature;BMP_pressure;BME280_temperature;BME280_humidity;BME280_pressure;Samples;Min_cycle;Max_cycle;Signal;HPM_P1;HPM_P2
2023/01/24 00:02:03;;;;;;;;;;;0.90;99.90;;;;;;4927276;29;19931;-71
2023/01/24 00:04:32;;;;;;;;;;;0.90;99.90;;;;;;4923159;29;19927;-72
2023/01/24 00:07:02;;;;;;;;;;;0.90;99.90;;;;;;4926781;29;19927;-71
2023/01/24 00:09:33;;;;;;;;;;;0.90;99.90;;;;;;4910440;29;19954;-73
2023/01/24 00:12:07;;;;;;;;;;;0.90;99.90;;;;;;4930826;29;20021;-72
2023/01/24 00:14:43;;;;;;;;;;;0.90;99.90;;;;;;4916917;29;19979;-72
2023/01/24 00:17:12;;;;;;;;;;;0.90;99.90;;;;;;4900359;29;19931;-72
2023/01/24 00:19:41;;;;;;;;;;;1.00;99.90;;;;;;4919748;29;20325;-72
2023/01/24 00:22:10;;;;;;;;;;;0.90;99.90;;;;;;4915348;29;19934;-73
2023/01/24 00:24:41;;;;;;;;;;;0.90;99.90;;;;;;4933737;29;19927;-72
2023/01/24 00:27:35;;;;;;;;;;;0.90;99.90;;;;;;4910320;29;20470;-71
2023/01/24 00:30:05;;;;;;;;;;;0.90;99.90;;;;;;4927900;28;20029;-71
2023/01/24 00:32:39;;;;;;;;;;;0.90;99.90;;;;;;4907252;29;20313;-72
2023/01/24 00:35:09;;;;;;;;;;;0.90;99.90;;;;;;4925111;29;20314;-72
2023/01/24 00:37:42;;;;;;;;;;;0.90;99.90;;;;;;4917266;29;19927;-71
2023/01/24 00:40:11;;;;;;;;;;;0.90;99.90;;;;;;4904496;29;20315;-71
2023/01/24 00:42:40;;;;;;;;;;;0.90;99.90;;;;;;4909511;29;20377;-73
2023/01/24 00:45:09;;;;;;;;;;;0.90;99.90;;;;;;4906634;29;19926;-72
2023/01/24 00:47:39;;;;;;;;;;;0.90;99.90;;;;;;4926087;29;20494;-71
2023/01/24 00:50:08;;;;;;;;;;;0.90;99.90;;;;;;4923927;29;19935;-71
2023/01/24 00:52:37;;;;;;;;;;;0.90;99.90;;;;;;4922480;29;20526;-70
2023/01/24 00:55:06;;;;;;;;;;;0.90;99.90;;;;;;4924680;29;19934;-71
2023/01/24 00:57:40;;;;;;;;;;;0.90;99.90;;;;;;4928441;29;19975;-71
2023/01/24 01:00:13;;;;;;;;;;;0.90;99.90;;;;;;4904575;29;19927;-72
2023/01/24 01:02:42;;;;;;;;;;;1.00;99.90;;;;;;4921612;29;19927;-72
2023/01/24 01:05:13;;;;;;;;;;;1.00;99.90;;;;;;4905560;29;20015;-72
2023/01/24 01:07:42;;;;;;;;;;;0.90;99.90;;;;;;4919191;29;19990;-72
2023/01/24 01:10:12;;;;;;;;;;;0.90;99.90;;;;;;4903068;29;20286;-71
2023/01/24 01:12:44;;;;;;;;;;;0.90;99.90;;;;;;4924708;29;20023;-72
2023/01/24 01:15:16;;;;;;;;;;;1.00;99.90;;;;;;4906004;29;20009;-71
2023/01/24 01:17:45;;;;;;;;;;;0.90;99.90;;;;;;4930953;29;20385;-72
2023/01/24 01:20:17;;;;;;;;;;;0.90;99.90;;;;;;4919514;28;20612;-71
2023/01/24 01:22:46;;;;;;;;;;;0.90;99.90;;;;;;4904379;29;20018;-71
2023/01/24 01:25:15;;;;;;;;;;;0.90;99.90;;;;;;4918822;29;19935;-73
2023/01/24 01:27:45;;;;;;;;;;;0.90;99.90;;;;;;4917766;29;20438;-71
2023/01/24 01:30:16;;;;;;;;;;;0.90;99.90;;;;;;4915363;29;20394;-72
2023/01/24 01:32:50;;;;;;;;;;;0.90;99.90;;;;;;4921146;29;19927;-71
2023/01/24 01:35:20;;;;;;;;;;;0.90;99.90;;;;;;4924535;29;19934;-72
2023/01/24 01:37:51;;;;;;;;;;;0.90;99.90;;;;;;4917720;29;19935;-72
2023/01/24 01:40:20;;;;;;;;;;;0.90;99.90;;;;;;4929341;29;19950;-71
2023/01/24 01:42:52;;;;;;;;;;;1.00;99.90;;;;;;4919809;29;20321;-72
2023/01/24 01:45:30;;;;;;;;;;;1.00;99.90;;;;;;4902879;29;20108;-71
2023/01/24 01:48:02;;;;;;;;;;;1.00;99.90;;;;;;4927419;29;19955;-71
2023/01/24 01:50:38;;;;;;;;;;;0.90;99.90;;;;;;4900794;29;19927;-71
2023/01/24 01:53:06;;;;;;;;;;;0.90;99.90;;;;;;4918638;29;19927;-72
2023/01/24 01:55:35;;;;;;;;;;;1.00;99.90;;;;;;4904277;29;20009;-71
2023/01/24 01:58:04;;;;;;;;;;;1.00;99.90;;;;;;4923634;29;20026;-72
2023/01/24 02:00:33;;;;;;;;;;;1.00;99.90;;;;;;4919443;29;20026;-72
2023/01/24 02:05:54;;;;;;;;;;;0.90;99.90;;;;;;4922117;29;19938;-72
2023/01/24 02:08:25;;;;;;;;;;;1.00;99.90;;;;;;4905985;29;20139;-72
2023/01/24 02:13:43;;;;;;;;;;;1.00;99.90;;;;;;4919356;29;19954;-72
2023/01/24 02:16:15;;;;;;;;;;;1.00;99.90;;;;;;4918630;29;19970;-72
2023/01/24 02:18:45;;;;;;;;;;;1.00;99.90;;;;;;4904120;29;20025;-72
2023/01/24 02:21:15;;;;;;;;;;;0.90;99.90;;;;;;4890105;29;19970;-72
2023/01/24 02:23:56;;;;;;;;;;;0.90;99.90;;;;;;4907652;29;19941;-72
2023/01/24 02:26:28;;;;;;;;;;;0.90;99.90;;;;;;4925926;29;20018;-72
2023/01/24 02:28:57;;;;;;;;;;;1.00;99.90;;;;;;4903573;29;19927;-72
2023/01/24 02:31:27;;;;;;;;;;;1.00;99.90;;;;;;4919477;29;19955;-73
2023/01/24 02:33:54;;;;;;;;;;;1.00;99.90;;;;;;4923299;29;19969;-72
2023/01/24 02:36:26;;;;;;;;;;;0.90;99.90;;;;;;4920536;29;19982;-72
2023/01/24 02:39:06;;;;;;;;;;;0.90;99.90;;;;;;4905618;29;19938;-72
2023/01/24 02:41:38;;;;;;;;;;;1.00;99.90;;;;;;4929077;29;20398;-73
2023/01/24 02:44:09;;;;;;;;;;;1.00;99.90;;;;;;4906134;29;20283;-72
2023/01/24 02:46:42;;;;;;;;;;;1.00;99.90;;;;;;4918277;29;19942;-72
2023/01/24 02:49:11;;;;;;;;;;;0.90;99.90;;;;;;4900309;29;20406;-72
2023/01/24 02:54:29;;;;;;;;;;;1.00;99.90;;;;;;4922365;29;19987;-73
2023/01/24 02:59:47;;;;;;;;;;;0.90;99.90;;;;;;4916957;29;19927;-72
2023/01/24 03:02:17;;;;;;;;;;;0.90;99.90;;;;;;4921071;29;19966;-72
2023/01/24 03:04:46;;;;;;;;;;;0.90;99.90;;;;;;4897907;29;19934;-72
2023/01/24 03:07:15;;;;;;;;;;;0.90;99.90;;;;;;4918477;29;19931;-72
2023/01/24 03:09:51;;;;;;;;;;;0.90;99.90;;;;;;4907313;29;19927;-72
2023/01/24 03:34:49;;;;;;;;;;;0.90;99.90;;;;;;4916351;29;20587;-72
2023/01/24 03:40:10;;;;;;;;;;;1.00;99.90;;;;;;4925196;29;19927;-72
2023/01/24 03:42:47;;;;;;;;;;;1.00;99.90;;;;;;4926355;29;19935;-72
2023/01/24 03:45:22;;;;;;;;;;;1.00;99.90;;;;;;4926288;29;20008;-72
2023/01/24 03:47:54;;;;;;;;;;;1.00;99.90;;;;;;4919648;29;19927;-72
2023/01/24 03:53:28;;;;;;;;;;;1.00;99.90;;;;;;4922838;29;19927;-73
2023/01/24 03:56:01;;;;;;;;;;;0.90;99.90;;;;;;4922954;29;19931;-73
2023/01/24 03:58:39;;;;;;;;;;;0.90;99.90;;;;;;4905189;29;19939;-73
2023/01/24 04:01:11;;;;;;;;;;;1.00;99.90;;;;;;4905407;29;19956;-72
2023/01/24 04:03:57;;;;;;;;;;;0.90;99.90;;;;;;4911913;29;19934;-72
2023/01/24 04:06:27;;;;;;;;;;;0.90;99.90;;;;;;4915508;29;20404;-72
2023/01/24 04:08:57;;;;;;;;;;;1.00;99.90;;;;;;4924670;29;19931;-73
2023/01/24 04:11:25;;;;;;;;;;;1.00;99.90;;;;;;4906520;29;19986;-72
2023/01/24 04:14:00;;;;;;;;;;;1.00;99.90;;;;;;4904440;29;20347;-73
2023/01/24 04:16:29;;;;;;;;;;;1.00;99.90;;;;;;4917354;29;19927;-72
2023/01/24 04:19:06;;;;;;;;;;;1.00;99.90;;;;;;4922045;29;19927;-73
2023/01/24 04:21:35;;;;;;;;;;;1.00;99.90;;;;;;4909808;29;20413;-72
2023/01/24 04:24:02;;;;;;;;;;;0.90;99.90;;;;;;4900781;29;20249;-73
2023/01/24 04:26:33;;;;;;;;;;;1.00;99.90;;;;;;4921779;29;19934;-72
2023/01/24 04:29:03;;;;;;;;;;;0.90;99.90;;;;;;4921127;29;19927;-72
2023/01/24 04:31:31;;;;;;;;;;;1.00;99.90;;;;;;4910398;29;19927;-72
2023/01/24 04:34:22;;;;;;;;;;;1.00;99.90;;;;;;4921726;29;19926;-73
2023/01/24 04:36:50;;;;;;;;;;;1.00;99.90;;;;;;4924293;29;19957;-72
2023/01/24 04:39:19;;;;;;;;;;;1.00;99.90;;;;;;4907263;29;19966;-72
2023/01/24 04:41:57;;;;;;;;;;;1.00;99.90;;;;;;4922606;29;19934;-72
2023/01/24 04:44:26;;;;;;;;;;;1.00;99.90;;;;;;4917215;29;19978;-72
2023/01/24 04:46:54;;;;;;;;;;;1.10;99.90;;;;;;4922001;29;19927;-72
2023/01/24 04:49:22;;;;;;;;;;;1.00;99.90;;;;;;4903074;29;19931;-73
2023/01/24 04:51:50;;;;;;;;;;;1.00;99.90;;;;;;4905985;29;20030;-73
2023/01/24 04:54:23;;;;;;;;;;;1.10;99.90;;;;;;4910428;29;20609;-73
2023/01/24 04:56:52;;;;;;;;;;;1.00;99.90;;;;;;4905187;29;20304;-73
2023/01/24 04:59:20;;;;;;;;;;;1.10;99.90;;;;;;4921127;28;20076;-73
2023/01/24 05:01:49;;;;;;;;;;;1.10;99.90;;;;;;4921589;29;19934;-72
2023/01/24 05:04:42;;;;;;;;;;;1.10;99.90;;;;;;4913716;29;20628;-73
2023/01/24 05:07:11;;;;;;;;;;;1.10;99.90;;;;;;4938311;29;20550;-74
2023/01/24 05:09:41;;;;;;;;;;;1.10;99.90;;;;;;4914356;29;19981;-73
2023/01/24 05:12:11;;;;;;;;;;;1.00;99.90;;;;;;4913089;29;20618;-73
2023/01/24 05:14:40;;;;;;;;;;;1.00;99.90;;;;;;4919127;29;19974;-74
2023/01/24 05:17:09;;;;;;;;;;;1.10;99.90;;;;;;4923026;29;20694;-73
2023/01/24 05:19:42;;;;;;;;;;;1.10;99.90;;;;;;4899697;29;19933;-73
2023/01/24 05:22:22;;;;;;;;;;;1.10;99.90;;;;;;4915512;29;19927;-72
2023/01/24 05:24:53;;;;;;;;;;;1.00;99.90;;;;;;4912920;29;19938;-72
2023/01/24 05:27:25;;;;;;;;;;;1.10;99.90;;;;;;4906731;29;19930;-73
2023/01/24 05:29:59;;;;;;;;;;;1.10;99.90;;;;;;4931953;29;20622;-72
2023/01/24 05:32:28;;;;;;;;;;;1.10;99.90;;;;;;4935226;29;19962;-73
2023/01/24 05:34:56;;;;;;;;;;;1.10;99.90;;;;;;4908040;29;19927;-72
2023/01/24 05:37:24;;;;;;;;;;;1.10;99.90;;;;;;4931743;29;19966;-73
2023/01/24 05:39:52;;;;;;;;;;;1.00;99.90;;;;;;4905868;29;19969;-73
2023/01/24 05:42:21;;;;;;;;;;;1.10;99.90;;;;;;4928503;29;19927;-73
2023/01/24 05:44:54;;;;;;;;;;;1.10;99.90;;;;;;4916053;29;20408;-73
2023/01/24 05:47:23;;;;;;;;;;;1.10;99.90;;;;;;4912209;29;20010;-73
2023/01/24 05:49:51;;;;;;;;;;;1.10;99.90;;;;;;4894481;29;19966;-72
2023/01/24 05:52:22;;;;;;;;;;;1.10;99.90;;;;;;4923821;29;19926;-72
2023/01/24 05:54:51;;;;;;;;;;;1.10;99.90;;;;;;4916835;29;19927;-73
2023/01/24 05:57:31;;;;;;;;;;;1.10;99.90;;;;;;4904660;29;19931;-72
2023/01/24 06:00:28;;;;;;;;;;;1.10;99.90;;;;;;4915473;29;19930;-72
2023/01/24 06:03:18;;;;;;;;;;;1.10;99.90;;;;;;4913843;29;19926;-72
2023/01/24 06:05:48;;;;;;;;;;;1.10;99.90;;;;;;4911085;29;20406;-72
2023/01/24 06:08:17;;;;;;;;;;;1.10;99.90;;;;;;4908033;29;20031;-72
2023/01/24 06:10:47;;;;;;;;;;;1.10;99.90;;;;;;4923472;29;19927;-72
2023/01/24 06:13:16;;;;;;;;;;;1.20;99.90;;;;;;4907344;29;19927;-72
2023/01/24 06:15:44;;;;;;;;;;;1.10;99.90;;;;;;4904699;29;20351;-73
2023/01/24 06:18:16;;;;;;;;;;;1.10;99.90;;;;;;4919711;29;19960;-72
2023/01/24 06:20:49;;;;;;;;;;;1.10;99.90;;;;;;4927469;29;19957;-73
2023/01/24 06:23:22;;;;;;;;;;;1.10;99.90;;;;;;4921206;29;19966;-73
2023/01/24 06:25:52;;;;;;;;;;;1.10;99.90;;;;;;4920167;29;20444;-73
2023/01/24 06:28:21;;;;;;;;;;;1.10;99.90;;;;;;4911411;29;19927;-72
2023/01/24 06:31:03;;;;;;;;;;;1.10;99.90;;;;;;4917989;29;19934;-73
2023/01/24 06:33:42;;;;;;;;;;;1.10;99.90;;;;;;4926031;29;19982;-73
2023/01/24 06:36:17;;;;;;;;;;;1.10;99.90;;;;;;4925030;29;19974;-73
2023/01/24 06:38:46;;;;;;;;;;;1.10;99.90;;;;;;4905818;29;19927;-72
2023/01/24 06:41:16;;;;;;;;;;;1.10;99.90;;;;;;4909778;29;20560;-73
2023/01/24 06:43:49;;;;;;;;;;;1.10;99.90;;;;;;4921355;29;19934;-73
2023/01/24 06:46:17;;;;;;;;;;;1.10;99.90;;;;;;4891304;29;19927;-73
2023/01/24 06:48:45;;;;;;;;;;;1.10;99.90;;;;;;4900556;29;19935;-73
2023/01/24 06:51:14;;;;;;;;;;;1.10;99.90;;;;;;4907281;29;19934;-72
2023/01/24 06:53:44;;;;;;;;;;;1.00;99.90;;;;;;4918921;29;19934;-72
2023/01/24 06:56:13;;;;;;;;;;;1.00;99.90;;;;;;4916856;29;20022;-73
2023/01/24 06:58:42;;;;;;;;;;;1.10;99.90;;;;;;4923746;29;20413;-73
2023/01/24 07:01:12;;;;;;;;;;;1.10;99.90;;;;;;4924048;29;19962;-72
2023/01/24 07:03:41;;;;;;;;;;;1.20;99.90;;;;;;4930326;28;20012;-73
2023/01/24 07:06:11;;;;;;;;;;;1.10;99.90;;;;;;4916496;29;19935;-73
2023/01/24 07:08:41;;;;;;;;;;;1.20;99.90;;;;;;4910861;29;20310;-73
2023/01/24 07:11:11;;;;;;;;;;;1.10;99.90;;;;;;4935416;29;20009;-72
2023/01/24 07:13:44;;;;;;;;;;;1.20;99.90;;;;;;4919021;29;19926;-73
2023/01/24 07:16:13;;;;;;;;;;;1.10;99.90;;;;;;4913328;29;19927;-73
2023/01/24 07:18:48;;;;;;;;;;;1.10;99.90;;;;;;4904979;29;19927;-73
2023/01/24 07:21:27;;;;;;;;;;;1.10;99.90;;;;;;4935543;28;20021;-73
2023/01/24 07:23:57;;;;;;;;;;;1.10;99.90;;;;;;4916917;29;19982;-72
2023/01/24 07:26:34;;;;;;;;;;;1.10;99.90;;;;;;4927374;29;20338;-73
2023/01/24 07:29:04;;;;;;;;;;;1.10;99.90;;;;;;4918646;29;19926;-73
2023/01/24 07:31:35;;;;;;;;;;;1.10;99.90;;;;;;4927995;29;19930;-73
2023/01/24 07:34:07;;;;;;;;;;;1.10;99.90;;;;;;4917730;29;20768;-73
2023/01/24 07:36:37;;;;;;;;;;;1.10;99.90;;;;;;4917563;29;20457;-72
2023/01/24 07:39:06;;;;;;;;;;;1.10;99.90;;;;;;4914133;29;19934;-73
2023/01/24 07:41:35;;;;;;;;;;;1.20;99.90;;;;;;4922638;28;19931;-73
2023/01/24 07:44:07;;;;;;;;;;;1.20;99.90;;;;;;4934081;29;20441;-72
2023/01/24 07:46:37;;;;;;;;;;;1.20;99.90;;;;;;4924949;29;19927;-72
2023/01/24 07:49:07;;;;;;;;;;;1.20;99.90;;;;;;4927442;29;19943;-72
2023/01/24 07:51:39;;;;;;;;;;;1.20;99.90;;;;;;4930116;29;20453;-73
2023/01/24 07:54:09;;;;;;;;;;;1.20;99.90;;;;;;4904635;29;19956;-72
2023/01/24 07:56:41;;;;;;;;;;;1.20;99.90;;;;;;4918017;29;19931;-73
2023/01/24 07:59:10;;;;;;;;;;;1.20;99.90;;;;;;4929145;29;20005;-73
2023/01/24 08:01:40;;;;;;;;;;;1.20;99.90;;;;;;4929154;29;19949;-73
2023/01/24 08:04:09;;;;;;;;;;;1.30;99.90;;;;;;4921209;29;20010;-73
2023/01/24 08:07:16;;;;;;;;;;;1.20;99.90;;;;;;4914233;29;19927;-73
2023/01/24 08:09:48;;;;;;;;;;;1.20;99.90;;;;;;4930903;29;19934;-73
2023/01/24 08:12:18;;;;;;;;;;;1.20;99.90;;;;;;4930606;29;19950;-73
2023/01/24 08:14:51;;;;;;;;;;;1.30;99.90;;;;;;4901825;29;19927;-73
2023/01/24 08:17:20;;;;;;;;;;;1.30;99.90;;;;;;4932940;29;19933;-73
2023/01/24 08:19:58;;;;;;;;;;;1.30;99.90;;;;;;4911979;29;19927;-73
2023/01/24 08:22:34;;;;;;;;;;;1.30;99.90;;;;;;4931273;29;19993;-73
2023/01/24 08:25:07;;;;;;;;;;;1.30;99.90;;;;;;4940585;28;19942;-73
2023/01/24 08:27:56;;;;;;;;;;;1.30;99.90;;;;;;4932161;29;19934;-73
2023/01/24 08:30:29;;;;;;;;;;;1.30;99.90;;;;;;4916475;29;20014;-73
2023/01/24 08:33:37;;;;;;;;;;;1.30;99.90;;;;;;4924073;29;19927;-73
2023/01/24 08:36:14;;;;;;;;;;;1.40;99.90;;;;;;4910956;29;19934;-73
2023/01/24 08:38:43;;;;;;;;;;;1.30;99.90;;;;;;4927467;29;19927;-73
2023/01/24 08:41:24;;;;;;;;;;;1.40;99.90;;;;;;4919867;29;19982;-73
2023/01/24 08:43:53;;;;;;;;;;;1.40;99.90;;;;;;4902354;29;19939;-73
2023/01/24 08:46:23;;;;;;;;;;;1.40;99.90;;;;;;4916293;29;19991;-73
2023/01/24 08:48:52;;;;;;;;;;;1.40;99.90;;;;;;4921351;29;19970;-73
2023/01/24 08:51:21;;;;;;;;;;;1.40;99.90;;;;;;4915943;29;19926;-73
2023/01/24 08:53:50;;;;;;;;;;;1.40;99.90;;;;;;4931808;29;20013;-73
2023/01/24 08:56:20;;;;;;;;;;;1.40;99.90;;;;;;4906947;29;19931;-74
2023/01/24 08:58:49;;;;;;;;;;;1.40;99.90;;;;;;4904693;29;19934;-73
2023/01/24 09:01:20;;;;;;;;;;;1.40;99.90;;;;;;4926983;29;20596;-73
2023/01/24 09:03:49;;;;;;;;;;;1.40;99.90;;;;;;4906986;29;20025;-73
2023/01/24 09:06:18;;;;;;;;;;;1.50;99.90;;;;;;4907866;29;20013;-73
2023/01/24 09:08:47;;;;;;;;;;;1.50;99.90;;;;;;4899139;29;19970;-73
2023/01/24 09:11:16;;;;;;;;;;;1.40;99.90;;;;;;4914880;29;19954;-73
2023/01/24 09:13:46;;;;;;;;;;;1.50;99.90;;;;;;4899319;29;19995;-73
2023/01/24 09:16:15;;;;;;;;;;;1.50;99.90;;;;;;4909536;29;20026;-73
2023/01/24 09:18:46;;;;;;;;;;;1.50;99.90;;;;;;4937835;29;19938;-73
2023/01/24 09:21:14;;;;;;;;;;;1.50;99.90;;;;;;4914827;29;20010;-73
2023/01/24 09:23:42;;;;;;;;;;;1.50;99.90;;;;;;4915191;29;19970;-73
2023/01/24 09:26:10;;;;;;;;;;;1.50;99.90;;;;;;4921904;29;20381;-73
2023/01/24 09:28:41;;;;;;;;;;;1.60;99.90;;;;;;4923483;29;19926;-73
2023/01/24 09:31:09;;;;;;;;;;;1.50;99.90;;;;;;4925736;29;19927;-73
2023/01/24 09:33:38;;;;;;;;;;;1.60;99.90;;;;;;4907057;29;19926;-73
2023/01/24 09:36:06;;;;;;;;;;;1.60;99.90;;;;;;4917472;29;19927;-73
2023/01/24 09:38:36;;;;;;;;;;;1.60;99.90;;;;;;4901355;29;19969;-73
2023/01/24 09:41:17;;;;;;;;;;;1.60;99.90;;;;;;4917703;29;19937;-73
2023/01/24 09:43:54;;;;;;;;;;;1.70;99.90;;;;;;4929579;29;19927;-73
2023/01/24 09:46:48;;;;;;;;;;;1.60;99.90;;;;;;4917547;29;19966;-73
2023/01/24 09:49:40;;;;;;;;;;;1.60;99.90;;;;;;4926839;29;20022;-74
2023/01/24 09:52:29;;;;;;;;;;;1.60;99.90;;;;;;4916943;29;19977;-73
2023/01/24 09:55:01;;;;;;;;;;;1.60;99.90;;;;;;4898791;29;20610;-73
2023/01/24 09:57:49;;;;;;;;;;;1.70;99.90;;;;;;4922727;29;19927;-73
2023/01/24 10:00:21;;;;;;;;;;;1.70;99.90;;;;;;4922255;29;19927;-74
2023/01/24 10:02:52;;;;;;;;;;;1.70;99.90;;;;;;4939221;29;19927;-73
2023/01/24 10:05:26;;;;;;;;;;;1.70;99.90;;;;;;4918457;29;19927;-74
2023/01/24 10:08:03;;;;;;;;;;;1.70;99.90;;;;;;4931314;29;19927;-73
2023/01/24 10:10:32;;;;;;;;;;;1.80;99.90;;;;;;4917562;29;19938;-73
2023/01/24 10:13:21;;;;;;;;;;;1.80;99.90;;;;;;4922460;29;20477;-73
2023/01/24 10:16:19;;;;;;;;;;;1.90;99.90;;;;;;4921677;29;20298;-73
2023/01/24 10:19:06;;;;;;;;;;;1.80;99.90;;;;;;4907414;29;19999;-73
2023/01/24 10:21:38;;;;;;;;;;;1.90;99.90;;;;;;4924858;29;19926;-73
2023/01/24 10:24:11;;;;;;;;;;;1.80;99.90;;;;;;4919962;29;19945;-73
2023/01/24 10:26:46;;;;;;;;;;;1.80;99.90;;;;;;4926417;29;19930;-73
2023/01/24 10:29:26;;;;;;;;;;;1.80;99.90;;;;;;4943949;29;19934;-73
2023/01/24 10:32:28;;;;;;;;;;;1.80;99.90;;;;;;4906472;29;19961;-73
2023/01/24 10:35:02;;;;;;;;;;;1.90;99.90;;;;;;4892080;29;19927;-73
2023/01/24 10:37:38;;;;;;;;;;;1.90;99.90;;;;;;4936274;29;20041;-73
2023/01/24 10:40:18;;;;;;;;;;;1.90;99.90;;;;;;4919663;29;19926;-73
2023/01/24 10:42:46;;;;;;;;;;;1.90;99.90;;;;;;4906767;29;19934;-73
2023/01/24 10:45:29;;;;;;;;;;;1.90;99.90;;;;;;4932520;29;19931;-73
2023/01/24 10:48:09;;;;;;;;;;;2.00;99.90;;;;;;4917051;29;20397;-73
2023/01/24 10:50:42;;;;;;;;;;;2.00;99.90;;;;;;4901213;29;19938;-73
2023/01/24 10:53:18;;;;;;;;;;;2.00;99.90;;;;;;4926694;29;19933;-73
2023/01/24 10:55:48;;;;;;;;;;;2.10;99.90;;;;;;4914372;29;19942;-73
2023/01/24 11:01:37;;;;;;;;;;;2.10;99.90;;;;;;4925399;29;19926;-72
2023/01/24 11:04:18;;;;;;;;;;;2.10;99.90;;;;;;4929294;29;20365;-72
2023/01/24 11:06:51;;;;;;;;;;;2.10;99.90;;;;;;4898323;29;20022;-72
2023/01/24 11:09:24;;;;;;;;;;;2.10;99.90;;;;;;4898631;29;20385;-72
2023/01/24 11:11:54;;;;;;;;;;;2.10;99.90;;;;;;4935197;29;19961;-72
2023/01/24 11:14:30;;;;;;;;;;;2.10;99.90;;;;;;4898971;29;20405;-72
2023/01/24 11:16:59;;;;;;;;;;;2.20;99.90;;;;;;4920505;29;19930;-72
2023/01/24 11:19:57;;;;;;;;;;;2.20;99.90;;;;;;4906537;29;19928;-74
2023/01/24 11:22:33;;;;;;;;;;;2.20;99.90;;;;;;4900095;29;19969;-72
2023/01/24 11:25:03;;;;;;;;;;;2.20;99.90;;;;;;4920683;29;20119;-72
2023/01/24 11:27:44;;;;;;;;;;;2.20;99.90;;;;;;4890723;29;20342;-72
2023/01/24 11:30:13;;;;;;;;;;;2.20;99.90;;;;;;4914069;29;19927;-72
2023/01/24 11:32:48;;;;;;;;;;;2.20;99.90;;;;;;4908538;29;19937;-74
2023/01/24 11:35:37;;;;;;;;;;;2.20;99.90;;;;;;4911262;29;19952;-74
2023/01/24 11:38:21;;;;;;;;;;;2.20;99.90;;;;;;4920957;29;20030;-74
2023/01/24 11:41:01;;;;;;;;;;;2.20;99.90;;;;;;4914949;29;19926;-74
2023/01/24 11:43:33;;;;;;;;;;;2.20;99.90;;;;;;4915482;29;20404;-72
2023/01/24 11:46:09;;;;;;;;;;;2.20;99.90;;;;;;4921547;29;19934;-72
2023/01/24 11:48:45;;;;;;;;;;;2.20;99.90;;;;;;4919666;29;19926;-72
2023/01/24 11:51:24;;;;;;;;;;;2.30;99.90;;;;;;4927774;29;19934;-72
2023/01/24 11:54:00;;;;;;;;;;;2.30;99.90;;;;;;4912731;29;19927;-72
2023/01/24 11:56:30;;;;;;;;;;;2.30;99.90;;;;;;4908638;29;19998;-74
2023/01/24 11:59:17;;;;;;;;;;;2.30;99.90;;;;;;4913927;29;19938;-71
2023/01/24 12:01:55;;;;;;;;;;;2.30;99.90;;;;;;4911229;29;19991;-71
2023/01/24 12:04:27;;;;;;;;;;;2.30;99.90;;;;;;4916536;29;19927;-71
2023/01/24 12:07:03;;;;;;;;;;;2.20;99.90;;;;;;4911708;29;19983;-71
2023/01/24 12:09:52;;;;;;;;;;;2.30;99.90;;;;;;4928404;29;20008;-74
2023/01/24 12:12:22;;;;;;;;;;;2.30;99.90;;;;;;4910547;29;19927;-74
2023/01/24 12:15:01;;;;;;;;;;;2.30;99.90;;;;;;4914423;29;19931;-72
2023/01/24 12:17:30;;;;;;;;;;;2.30;99.90;;;;;;4930168;28;19934;-72
2023/01/24 12:20:22;;;;;;;;;;;2.30;99.90;;;;;;4929391;29;20294;-72
2023/01/24 12:22:53;;;;;;;;;;;2.30;99.90;;;;;;4891296;29;20291;-72
2023/01/24 12:25:32;;;;;;;;;;;2.30;99.90;;;;;;4926696;29;20299;-72
2023/01/24 12:28:01;;;;;;;;;;;2.30;99.90;;;;;;4916764;29;19937;-73
2023/01/24 12:30:34;;;;;;;;;;;2.40;99.90;;;;;;4929654;29;19937;-72
2023/01/24 12:33:25;;;;;;;;;;;2.40;99.90;;;;;;4931546;29;19927;-72
2023/01/24 12:36:17;;;;;;;;;;;2.40;99.90;;;;;;4929344;29;19927;-72
2023/01/24 12:39:09;;;;;;;;;;;2.40;99.90;;;;;;4928562;29;19931;-73
2023/01/24 12:42:00;;;;;;;;;;;2.40;99.90;;;;;;4911400;29;19926;-72
2023/01/24 12:44:34;;;;;;;;;;;2.40;99.90;;;;;;4930703;29;19934;-72
2023/01/24 12:47:27;;;;;;;;;;;2.40;99.90;;;;;;4930758;29;19935;-71
2023/01/24 12:50:08;;;;;;;;;;;2.40;99.90;;;;;;4910085;29;19966;-72
2023/01/24 12:52:47;;;;;;;;;;;2.40;99.90;;;;;;4896275;29;19935;-72
2023/01/24 12:55:23;;;;;;;;;;;2.40;99.90;;;;;;4913351;29;19934;-72
2023/01/24 12:58:08;;;;;;;;;;;2.50;99.90;;;;;;4931694;29;19970;-71
2023/01/24 13:00:55;;;;;;;;;;;2.70;99.90;;;;;;4913116;29;20030;-71
2023/01/24 13:03:28;;;;;;;;;;;2.70;99.90;;;;;;4925236;29;19977;-71
2023/01/24 13:06:21;;;;;;;;;;;2.70;99.90;;;;;;4926572;29;20301;-71
2023/01/24 13:08:55;;;;;;;;;;;2.60;99.90;;;;;;4927500;29;20373;-71
2023/01/24 13:11:30;;;;;;;;;;;2.60;99.90;;;;;;4897306;29;19927;-71
2023/01/24 13:14:10;;;;;;;;;;;2.60;99.90;;;;;;4900461;29;19934;-71
2023/01/24 13:16:47;;;;;;;;;;;2.50;99.90;;;;;;4928403;29;19966;-71
2023/01/24 13:20:00;;;;;;;;;;;2.50;99.90;;;;;;4926827;29;19990;-71
2023/01/24 13:22:46;;;;;;;;;;;2.50;99.90;;;;;;4927528;29;19934;-71
2023/01/24 13:25:22;;;;;;;;;;;2.50;99.90;;;;;;4916178;29;19926;-71
2023/01/24 13:27:50;;;;;;;;;;;2.50;99.90;;;;;;4922304;29;20330;-71
2023/01/24 13:30:23;;;;;;;;;;;2.50;99.90;;;;;;4898688;29;19937;-71
2023/01/24 13:32:53;;;;;;;;;;;2.50;99.90;;;;;;4909252;29;19933;-70
2023/01/24 13:35:31;;;;;;;;;;;2.50;99.90;;;;;;4923328;29;19927;-71
2023/01/24 13:38:25;;;;;;;;;;;2.50;99.90;;;;;;4909120;29;20033;-71
2023/01/24 13:41:03;;;;;;;;;;;2.40;99.90;;;;;;4911356;29;19989;-70
2023/01/24 13:43:50;;;;;;;;;;;2.50;99.90;;;;;;4924915;29;20401;-71
2023/01/24 13:46:40;;;;;;;;;;;2.40;99.90;;;;;;4929105;29;19934;-71
2023/01/24 13:49:27;;;;;;;;;;;2.40;99.90;;;;;;4930168;29;19934;-71
2023/01/24 13:51:57;;;;;;;;;;;2.40;99.90;;;;;;4916461;29;20669;-71
2023/01/24 13:54:39;;;;;;;;;;;2.30;99.90;;;;;;4929324;29;20398;-70
2023/01/24 13:57:21;;;;;;;;;;;2.30;99.90;;;;;;4896552;29;20422;-70
2023/01/24 14:00:24;;;;;;;;;;;2.30;99.90;;;;;;4916501;29;19970;-71
2023/01/24 14:03:04;;;;;;;;;;;2.30;99.90;;;;;;4917573;29;19935;-70
2023/01/24 14:05:47;;;;;;;;;;;2.30;99.90;;;;;;4896146;29;20386;-70
2023/01/24 14:08:25;;;;;;;;;;;2.20;99.90;;;;;;4902413;29;19933;-70
2023/01/24 14:10:57;;;;;;;;;;;2.20;99.90;;;;;;4906739;29;20022;-70
2023/01/24 14:13:46;;;;;;;;;;;2.30;99.90;;;;;;4932254;29;20347;-71
2023/01/24 14:16:23;;;;;;;;;;;2.30;99.90;;;;;;4930224;28;20426;-71
2023/01/24 14:19:12;;;;;;;;;;;2.20;99.90;;;;;;4914482;29;19931;-71
2023/01/24 14:22:14;;;;;;;;;;;2.20;99.90;;;;;;4913593;29;19927;-71
2023/01/24 14:24:53;;;;;;;;;;;2.20;99.90;;;;;;4893766;29;19966;-70
2023/01/24 14:27:40;;;;;;;;;;;2.20;99.90;;;;;;4906655;29;19936;-68
2023/01/24 14:30:13;;;;;;;;;;;2.30;99.90;;;;;;4928497;29;20389;-71
2023/01/24 14:32:53;;;;;;;;;;;2.20;99.90;;;;;;4917633;29;19927;-71
2023/01/24 14:35:29;;;;;;;;;;;2.20;99.90;;;;;;4924496;29;20467;-71
2023/01/24 14:38:23;;;;;;;;;;;2.30;99.90;;;;;;4912168;29;20298;-71
2023/01/24 14:41:22;;;;;;;;;;;2.40;99.90;;;;;;4924814;29;19927;-71
2023/01/24 14:43:55;;;;;;;;;;;2.50;99.90;;;;;;4910892;29;20022;-71
2023/01/24 14:46:25;;;;;;;;;;;2.50;99.90;;;;;;4930108;29;19927;-70
2023/01/24 14:48:55;;;;;;;;;;;2.40;99.90;;;;;;4924836;29;19982;-71
2023/01/24 14:51:28;;;;;;;;;;;2.40;99.90;;;;;;4927877;29;19934;-71
2023/01/24 14:53:59;;;;;;;;;;;2.40;99.90;;;;;;4919364;29;19931;-71
2023/01/24 14:56:39;;;;;;;;;;;2.30;99.90;;;;;;4889700;29;20013;-71
2023/01/24 14:59:11;;;;;;;;;;;2.30;99.90;;;;;;4912108;29;19935;-70
2023/01/24 15:01:41;;;;;;;;;;;2.30;99.90;;;;;;4898272;29;20025;-69
2023/01/24 15:04:26;;;;;;;;;;;2.20;99.90;;;;;;4929712;29;19969;-70
2023/01/24 15:07:12;;;;;;;;;;;2.20;99.90;;;;;;4930927;29;19941;-71
2023/01/24 15:09:42;;;;;;;;;;;2.30;99.90;;;;;;4908689;29;19987;-69
2023/01/24 15:12:15;;;;;;;;;;;2.20;99.90;;;;;;4932022;29;19927;-69
2023/01/24 15:14:50;;;;;;;;;;;2.20;99.90;;;;;;4910739;29;19960;-71
2023/01/24 15:17:24;;;;;;;;;;;2.20;99.90;;;;;;4912203;29;19931;-70
2023/01/24 15:19:56;;;;;;;;;;;2.20;99.90;;;;;;4908023;29;19927;-71
2023/01/24 15:22:23;;;;;;;;;;;2.20;99.90;;;;;;4924280;29;19982;-70
2023/01/24 15:25:01;;;;;;;;;;;2.20;99.90;;;;;;4928972;29;19975;-71
2023/01/24 15:27:29;;;;;;;;;;;2.20;99.90;;;;;;4906999;29;19987;-73
2023/01/24 15:30:04;;;;;;;;;;;2.20;99.90;;;;;;4929365;29;20313;-73
2023/01/24 15:32:37;;;;;;;;;;;2.20;99.90;;;;;;4923386;29;19942;-73
2023/01/24 15:35:24;;;;;;;;;;;2.20;99.90;;;;;;4919579;29;19930;-73
2023/01/24 15:38:05;;;;;;;;;;;2.20;99.90;;;;;;4916617;29;19966;-72
2023/01/24 15:40:46;;;;;;;;;;;2.20;99.90;;;;;;4932453;29;19942;-73
2023/01/24 15:44:00;;;;;;;;;;;2.20;99.90;;;;;;4924736;29;20369;-73
2023/01/24 15:49:27;;;;;;;;;;;2.20;99.90;;;;;;4929075;29;19934;-70
2023/01/24 15:52:05;;;;;;;;;;;2.20;99.90;;;;;;4923430;29;20025;-70
2023/01/24 15:54:35;;;;;;;;;;;2.10;99.90;;;;;;4929848;29;20025;-70
2023/01/24 15:57:06;;;;;;;;;;;2.20;99.90;;;;;;4910992;29;20018;-71
2023/01/24 15:59:37;;;;;;;;;;;2.20;99.90;;;;;;4916528;29;19937;-71
2023/01/24 16:02:11;;;;;;;;;;;2.20;99.90;;;;;;4915121;29;19963;-71